Camden, SC

4:28 PM EDT on April 25, 2017 (GMT -0400)
Forest Dr | | Change Station
Active Advisory: Flood Warning Active Notice: Public Information Statement

Elev 304 ft 34.27 °N, 80.63 °W | Updated 12 seconds ago

Overcast
Overcast
66.9 °F
Feels Like 66.9 °F
N
2.5
Wind Variable Wind from NE
Gusts 7.4 mph

Today
High -- | Low -- °F
--% Chance of Precip.
Yesterday
High -- | Low -- °F
Precip. -- in
Pressure 29.71 in
Visibility 10.0 miles
Clouds Few 2900 ft
Overcast 3500 ft
Dew Point 62 °F
Humidity 83%
Rainfall 0.00 in
Snow Depth Not available.
6:38 AM 8:02 PM
Waning Crescent, 1% visible
METAR KCDN 252015Z AUTO 29006KT 10SM FEW029 OVC035 20/14 A2971 RMK AO2
Pressure 29.71 in
Visibility 10.0 miles
Clouds Few 2900 ft
Overcast 3500 ft
Dew Point 62 °F
Humidity 83%
Rainfall 0.00 in
Snow Depth Not available.
6:38 AM 8:02 PM
Waning Crescent, 1% visible
METAR KCDN 252015Z AUTO 29006KT 10SM FEW029 OVC035 20/14 A2971 RMK AO2

Get Your Daily Forecast Email!

Thanks for signing up!

Be on the lookout for a verification email in your inbox.

You'll start receiving severe weather alerts in your inbox..

×

10-Day Weather Forecast

Almanac

Astronomy

Apr. 25, 2017 Rise Set
Actual Time
Civil Twilight
Nautical Twilight
Astronomical Twilight
Moon
Length of Visible Light
Length of Day
Tomorrow will be .
, % of the Moon is Illuminated

Today's Extremes

State Highs State Lows

Community

WunderPhotos

WunderBlog® & News

Nearby

Air Quality

  Air Quality AQ Index Pollutant
Not available.

Snow Depth

Station Depth Elevation

Earthquake Activity

City Distance Mag. Time & Date
Minimum magnitude displayed is 2.5.

Coastal Water Temperatures

Place Temperature

Stations

Nearby Weather Stations

Station Location Temp. Windchill Dew Point Humidity Wind Precip. Elev Updated Type
                   

Watches & Warnings

Flood Warning
Issued: 3:13 PM EDT Apr. 25, 2017 – National Weather Service

The Flood Warning extended for
the Wateree river at Lake Wateree.
* Until late Friday night... or until the warning is cancelled.
* At 2 PM Tuesday the stage was 100.0 feet.
* Flood stage is 100.0 feet.
* Minor flooding is forecast.
* Forecast... the river has just risen to flood stage this afternoon
and will continue to slowly rise through the evening hours. The
pool will crest around 101.0 feet tomorrow morning. The river will
fall below flood stage after midnight Friday morning.
* At 100.5 feet... yards and docks in low lying areas begin to flood.
Flooding also occurs along wildlife Road and piers along Singleton
creek begin to flood.


Lat... Lon 3450 8085 3432 8063 3428 8075 3447 8098